Time;durP1;ratioP1;P1;durP2;ratioP2;P2;SDS_P1;SDS_P2;PMS_P1;PMS_P2;Temp;Humidity;BMP_temperature;BMP_pressure;BME280_temperature;BME280_humidity;BME280_pressure;Samples;Min_cycle;Max_cycle;Signal;HPM_P1;HPM_P2
2024/03/27 00:01:11;;;;;;;24.30;19.08;;;;;;;30.90;80.76;101254.16;5035113;28;66787;-32
2024/03/27 00:03:41;;;;;;;26.30;18.63;;;;;;;30.91;78.83;101261.25;5034732;28;69942;-31
2024/03/27 00:06:29;;;;;;;26.92;17.27;;;;;;;30.89;78.85;101247.91;5016892;28;66409;-32
2024/03/27 00:08:58;;;;;;;44.33;17.98;;;;;;;31.01;78.25;101256.22;5018311;28;69068;-33
2024/03/27 00:11:28;;;;;;;28.48;15.95;;;;;;;31.07;77.85;101249.13;5036998;28;66444;-29
2024/03/27 00:13:57;;;;;;;30.08;16.40;;;;;;;31.09;77.62;101247.88;5035457;28;70558;-30
2024/03/27 00:16:26;;;;;;;26.05;16.33;;;;;;;31.12;77.50;101263.69;5035925;28;65662;-31
2024/03/27 00:18:55;;;;;;;25.77;16.00;;;;;;;31.15;77.68;101262.44;5006517;28;69843;-30
2024/03/27 00:21:23;;;;;;;23.38;15.77;;;;;;;31.20;77.67;101269.91;5020266;28;66618;-31
2024/03/27 00:23:53;;;;;;;23.48;15.15;;;;;;;31.14;77.41;101256.16;5017641;28;69617;-32
2024/03/27 00:26:21;;;;;;;23.67;14.80;;;;;;;31.24;77.70;101265.75;5040699;28;66530;-30
2024/03/27 00:28:50;;;;;;;17.02;14.75;;;;;;;31.26;77.68;101275.34;5026457;28;70562;-32
2024/03/27 00:31:19;;;;;;;24.27;15.52;;;;;;;31.25;77.32;101281.78;5043064;28;65425;-30
2024/03/27 00:33:49;;;;;;;21.55;14.93;;;;;;;31.12;77.21;101263.69;5046788;28;70382;-31
2024/03/27 00:36:38;;;;;;;25.23;15.15;;;;;;;31.30;78.75;101292.00;5024816;28;66373;-33
2024/03/27 00:39:09;;;;;;;17.83;14.75;;;;;;;31.33;77.15;101296.97;5031628;28;69524;-31
2024/03/27 00:41:38;;;;;;;19.50;13.77;;;;;;;31.36;77.10;101297.41;5029447;28;66056;-31
2024/03/27 00:44:07;;;;;;;16.67;14.70;;;;;;;31.35;78.74;101303.84;5033405;28;70201;-31
2024/03/27 00:46:36;;;;;;;21.15;14.50;;;;;;;31.37;78.31;101304.53;5050154;28;66520;-31
2024/03/27 00:49:07;;;;;;;19.92;13.48;;;;;;;31.41;77.79;101309.50;5032736;28;70513;-30
2024/03/27 00:51:36;;;;;;;19.80;14.85;;;;;;;31.43;77.66;101308.25;5035183;28;65991;-31
2024/03/27 00:54:05;;;;;;;19.08;14.02;;;;;;;31.42;76.98;101306.56;5034385;28;70065;-32
2024/03/27 00:56:34;;;;;;;18.23;14.48;;;;;;;31.43;77.08;101302.00;5034280;28;66436;-32
2024/03/27 00:59:03;;;;;;;15.88;14.27;;;;;;;31.44;76.85;101304.47;5019875;28;70332;-31
2024/03/27 01:01:34;;;;;;;18.10;13.48;;;;;;;31.44;76.90;101314.50;5036394;28;65750;-30
2024/03/27 01:04:03;;;;;;;15.38;13.75;;;;;;;31.44;77.22;101309.91;5022949;28;70257;-30
2024/03/27 01:06:32;;;;;;;17.02;13.65;;;;;;;31.43;77.02;101308.25;5019306;28;66331;-31
2024/03/27 01:09:01;;;;;;;22.15;14.45;;;;;;;31.50;77.06;101314.47;5020985;28;70335;-31
2024/03/27 01:11:31;;;;;;;18.15;14.35;;;;;;;31.52;76.84;101316.97;5021426;28;66916;-30
2024/03/27 01:14:00;;;;;;;16.48;14.70;;;;;;;31.53;76.71;101319.47;5038817;28;69498;-31
2024/03/27 01:16:29;;;;;;;16.65;14.98;;;;;;;31.56;76.97;101313.59;5034756;28;67005;-33
2024/03/27 01:18:58;;;;;;;17.98;14.30;;;;;;;31.55;76.86;101321.97;5031304;28;70007;-29
2024/03/27 01:21:27;;;;;;;15.75;14.15;;;;;;;31.58;76.33;101330.50;5050982;28;67102;-31
2024/03/27 01:23:56;;;;;;;15.45;13.85;;;;;;;31.58;76.15;101314.22;5032968;28;70161;-31
2024/03/27 01:26:25;;;;;;;17.25;14.90;;;;;;;31.60;76.38;101341.97;5026479;28;66414;-30
2024/03/27 01:28:54;;;;;;;15.80;13.95;;;;;;;31.63;76.09;101339.88;5046443;28;70952;-30
2024/03/27 01:31:23;;;;;;;15.98;14.38;;;;;;;31.64;76.17;101342.38;5026081;28;66435;-31
2024/03/27 01:33:52;;;;;;;20.42;13.82;;;;;;;31.61;76.14;101331.94;5033930;28;69208;-31
2024/03/27 01:36:21;;;;;;;15.07;13.63;;;;;;;31.68;76.33;101342.75;5011975;28;66729;-31
2024/03/27 01:38:50;;;;;;;15.18;13.80;;;;;;;31.69;76.13;101339.03;5021423;28;70100;-32
2024/03/27 01:41:19;;;;;;;16.17;14.57;;;;;;;31.73;75.82;101345.66;4996756;28;66566;-31
2024/03/27 01:43:54;;;;;;;20.58;14.82;;;;;;;31.76;76.01;101339.81;5027862;28;70985;-32
2024/03/27 01:46:23;;;;;;;16.83;14.02;;;;;;;31.78;76.01;101343.97;5041654;28;66915;-31
2024/03/27 01:48:55;;;;;;;16.73;15.02;;;;;;;31.82;75.92;101344.41;5022769;28;71483;-32
2024/03/27 01:51:25;;;;;;;15.90;14.18;;;;;;;31.85;75.71;101338.53;5023343;28;66976;-31
2024/03/27 01:53:58;;;;;;;14.45;13.10;;;;;;;31.87;75.60;101332.88;5022271;28;69363;-30
2024/03/27 01:56:32;;;;;;;15.40;14.00;;;;;;;31.89;75.61;101334.31;5020591;28;66268;-31
2024/03/27 01:59:02;;;;;;;15.90;14.50;;;;;;;31.92;75.49;101339.34;4983286;28;70231;-32
2024/03/27 02:01:33;;;;;;;15.75;14.15;;;;;;;31.94;75.27;101342.69;5029437;28;66431;-32
2024/03/27 02:04:03;;;;;;;16.63;14.90;;;;;;;31.97;75.21;101338.72;4990676;28;69646;-30
2024/03/27 02:06:32;;;;;;;15.98;14.32;;;;;;;32.00;74.98;101349.94;5022028;28;66596;-31
2024/03/27 02:09:02;;;;;;;18.08;15.15;;;;;;;32.03;75.31;101346.81;5007148;28;70228;-31
2024/03/27 02:11:31;;;;;;;16.60;14.73;;;;;;;32.05;74.81;101361.00;5013554;28;66307;-31
2024/03/27 02:14:00;;;;;;;16.95;15.10;;;;;;;32.08;75.21;101358.91;5023467;28;70226;-33
2024/03/27 02:16:30;;;;;;;15.80;14.40;;;;;;;32.10;74.89;101354.94;5039724;28;66458;-31
2024/03/27 02:18:59;;;;;;;15.27;13.88;;;;;;;32.13;74.89;101357.19;5022839;28;69760;-30
2024/03/27 02:21:28;;;;;;;16.75;15.18;;;;;;;32.17;74.82;101354.88;5037611;28;66860;-31
2024/03/27 02:24:12;;;;;;;15.43;14.00;;;;;;;32.19;74.81;101358.22;5029950;28;70466;-31
2024/03/27 02:26:42;;;;;;;16.98;14.45;;;;;;;32.20;74.55;101363.41;5040776;28;66839;-31
2024/03/27 02:29:25;;;;;;;15.88;14.45;;;;;;;32.24;74.60;101358.38;4979902;28;70490;-31
2024/03/27 02:31:54;;;;;;;14.95;13.75;;;;;;;32.30;74.72;101364.81;5038895;28;66206;-30
2024/03/27 02:34:23;;;;;;;15.90;14.30;;;;;;;32.33;74.40;101362.50;5032228;28;70583;-32
2024/03/27 02:36:52;;;;;;;15.30;14.10;;;;;;;32.37;73.96;101347.41;5049513;28;66297;-31
2024/03/27 02:39:22;;;;;;;15.93;14.60;;;;;;;32.38;74.12;101354.53;5030472;28;70178;-32
2024/03/27 02:41:51;;;;;;;16.75;15.15;;;;;;;32.36;74.06;101340.34;5027502;28;65623;-31
2024/03/27 02:44:20;;;;;;;16.98;15.15;;;;;;;32.44;74.19;101342.78;5048249;28;69638;-32
2024/03/27 02:46:49;;;;;;;15.40;13.80;;;;;;;32.48;74.23;101338.63;5023336;28;66034;-31
2024/03/27 02:49:18;;;;;;;16.02;14.38;;;;;;;32.52;73.95;101338.19;5024849;28;68778;-31
2024/03/27 02:51:54;;;;;;;15.85;14.13;;;;;;;32.52;73.97;101343.63;5027096;28;66230;-33
2024/03/27 02:54:23;;;;;;;16.20;14.52;;;;;;;32.55;73.74;101351.31;5023212;28;69953;-31
2024/03/27 02:56:52;;;;;;;15.63;14.05;;;;;;;32.61;73.74;101345.00;5028946;28;66122;-31
2024/03/27 02:59:21;;;;;;;14.90;13.57;;;;;;;32.65;73.90;101354.34;5025653;28;69976;-31
2024/03/27 03:01:50;;;;;;;15.75;14.10;;;;;;;32.67;73.90;101349.53;5029991;28;66470;-30
2024/03/27 03:04:19;;;;;;;16.10;14.65;;;;;;;32.69;73.61;101347.44;5026154;28;70146;-31
2024/03/27 03:06:48;;;;;;;18.63;14.20;;;;;;;32.74;73.70;101347.63;5012381;28;65491;-32
2024/03/27 03:09:18;;;;;;;15.38;13.90;;;;;;;32.76;73.52;101350.91;5037415;28;69266;-30
2024/03/27 03:11:47;;;;;;;18.70;15.40;;;;;;;32.80;73.59;101338.56;5020574;28;66563;-32
2024/03/27 03:14:16;;;;;;;15.60;14.02;;;;;;;32.83;73.67;101346.28;5022972;28;69860;-32
2024/03/27 03:16:47;;;;;;;15.35;13.95;;;;;;;32.85;73.91;101349.59;5036223;28;65819;-30
2024/03/27 03:19:16;;;;;;;16.15;14.45;;;;;;;32.86;73.59;101329.53;5026866;28;70860;-32
2024/03/27 03:21:45;;;;;;;16.23;14.68;;;;;;;32.92;73.45;101336.78;5027100;28;65265;-30
2024/03/27 03:24:14;;;;;;;18.55;14.07;;;;;;;32.92;73.55;101323.19;5011156;28;70045;-34
2024/03/27 03:26:44;;;;;;;15.25;13.88;;;;;;;32.98;73.56;101335.03;5028106;28;65621;-31
2024/03/27 03:29:13;;;;;;;16.42;14.45;;;;;;;33.01;73.68;101331.91;5043477;28;70119;-31
2024/03/27 03:31:42;;;;;;;15.50;13.98;;;;;;;33.04;73.41;101330.63;5031795;28;66198;-30
2024/03/27 03:34:11;;;;;;;15.13;13.82;;;;;;;33.06;73.73;101334.78;5043886;28;70119;-31
2024/03/27 03:36:40;;;;;;;14.30;13.20;;;;;;;33.09;73.57;101328.91;5027121;28;66458;-32
2024/03/27 03:39:09;;;;;;;16.20;14.35;;;;;;;33.13;73.25;101329.31;5023290;28;69913;-31
2024/03/27 03:41:40;;;;;;;15.75;14.38;;;;;;;33.15;73.67;101316.28;5005235;28;66765;-31
2024/03/27 03:44:09;;;;;;;15.10;13.88;;;;;;;33.17;73.39;101319.63;5009182;28;69200;-31
2024/03/27 03:46:39;;;;;;;14.65;13.55;;;;;;;33.21;73.19;101315.41;5032841;28;66210;-32
2024/03/27 03:49:08;;;;;;;14.57;13.50;;;;;;;33.24;73.27;101309.53;5034395;28;69639;-31
2024/03/27 03:51:37;;;;;;;14.88;13.65;;;;;;;33.26;73.05;101307.38;5048556;28;65275;-31
2024/03/27 03:54:07;;;;;;;14.50;13.27;;;;;;;33.30;73.26;101308.59;5033375;28;70040;-31
2024/03/27 03:56:36;;;;;;;14.80;13.30;;;;;;;33.31;73.16;101299.38;5024114;28;66613;-32
2024/03/27 03:59:05;;;;;;;14.80;13.27;;;;;;;33.35;73.13;101300.59;5034437;28;70249;-31
2024/03/27 04:01:34;;;;;;;14.90;13.73;;;;;;;33.38;73.10;101302.88;5024927;28;66431;-31
2024/03/27 04:04:04;;;;;;;16.80;14.85;;;;;;;33.41;73.12;101298.03;5033253;28;69747;-31
2024/03/27 04:06:33;;;;;;;16.23;14.38;;;;;;;33.44;72.75;101298.41;5031626;28;66764;-31
2024/03/27 04:09:06;;;;;;;15.60;14.10;;;;;;;33.47;72.99;101288.97;5033205;28;69724;-32
2024/03/27 04:11:35;;;;;;;15.27;13.85;;;;;;;33.51;72.62;101287.44;5003659;28;66043;-32
2024/03/27 04:14:04;;;;;;;15.25;13.70;;;;;;;33.51;72.67;101280.09;5033741;28;69558;-32
2024/03/27 04:16:39;;;;;;;15.50;14.02;;;;;;;33.59;72.71;101284.44;5044616;28;65102;-30
2024/03/27 04:19:11;;;;;;;14.93;13.68;;;;;;;33.61;72.84;101281.50;5029797;28;70300;-31
2024/03/27 04:21:40;;;;;;;14.98;13.77;;;;;;;33.41;72.62;101243.66;5030247;28;66266;-34
2024/03/27 04:24:10;;;;;;;15.25;13.90;;;;;;;33.56;72.55;101268.56;5036821;28;70228;-32
2024/03/27 04:26:39;;;;;;;18.85;14.10;;;;;;;33.57;72.99;101259.34;5030076;28;66316;-34
2024/03/27 04:29:10;;;;;;;15.07;13.90;;;;;;;33.71;72.52;101266.28;5002065;28;68931;-30
2024/03/27 04:31:39;;;;;;;15.30;14.02;;;;;;;33.71;72.50;101269.00;5028379;28;66689;-33
2024/03/27 04:34:11;;;;;;;15.93;14.30;;;;;;;33.74;72.54;101257.66;5037353;28;69644;-33
2024/03/27 04:36:43;;;;;;;15.18;14.00;;;;;;;33.77;72.36;101254.47;5033968;28;66023;-32
2024/03/27 04:39:12;;;;;;;14.70;13.45;;;;;;;33.78;72.25;101239.78;5042637;28;70180;-32
2024/03/27 04:41:42;;;;;;;15.43;14.10;;;;;;;33.84;72.47;101243.47;5030027;28;65472;-32
2024/03/27 04:44:11;;;;;;;14.40;13.38;;;;;;;33.86;72.32;101240.53;5017656;28;69846;-32
2024/03/27 04:46:41;;;;;;;14.85;13.57;;;;;;;33.83;72.50;101235.56;5022559;28;65477;-30
2024/03/27 04:49:11;;;;;;;15.23;13.77;;;;;;;33.92;72.14;101245.88;5037010;28;69919;-31
2024/03/27 04:51:40;;;;;;;16.23;14.70;;;;;;;33.92;71.72;101228.72;5039415;28;66151;-31
2024/03/27 04:54:10;;;;;;;17.25;15.57;;;;;;;33.98;72.21;101225.06;5036308;28;69080;-31
2024/03/27 04:56:42;;;;;;;16.58;15.05;;;;;;;34.01;72.03;101227.31;5020276;28;65857;-31
2024/03/27 04:59:13;;;;;;;15.67;14.17;;;;;;;34.01;71.95;101213.69;4998837;28;70216;-31
2024/03/27 05:01:42;;;;;;;15.55;14.25;;;;;;;34.05;72.13;101217.66;5006382;28;66611;-31
2024/03/27 05:04:12;;;;;;;16.48;14.95;;;;;;;34.05;72.03;101206.78;5042504;28;69823;-31
2024/03/27 05:06:43;;;;;;;15.10;13.90;;;;;;;34.08;71.75;101200.84;5047482;28;65790;-31
2024/03/27 05:09:14;;;;;;;16.45;14.10;;;;;;;34.11;71.75;101200.38;5027560;28;70384;-31
2024/03/27 05:11:43;;;;;;;14.45;13.45;;;;;;;34.18;71.69;101195.63;5012686;28;66118;-31
2024/03/27 05:14:12;;;;;;;15.43;14.02;;;;;;;34.21;71.79;101200.66;5026533;28;69400;-32
2024/03/27 05:16:42;;;;;;;15.60;14.40;;;;;;;34.20;71.88;101188.06;5040627;28;65502;-32
2024/03/27 05:19:13;;;;;;;14.80;13.55;;;;;;;34.21;71.38;101184.31;5043244;28;70561;-31
2024/03/27 05:21:45;;;;;;;15.32;13.98;;;;;;;34.25;71.59;101181.94;5032890;28;66773;-31
2024/03/27 05:24:14;;;;;;;15.52;14.07;;;;;;;34.29;71.28;101174.09;5005134;28;70014;-31
2024/03/27 05:26:43;;;;;;;15.07;13.82;;;;;;;34.33;71.50;101159.78;5020189;28;66572;-31
2024/03/27 05:29:16;;;;;;;;;;;;;;;34.24;71.06;101155.75;5016841;28;69232;-30
2024/03/27 05:31:56;;;;;;;14.10;13.10;;;;;;;34.37;70.87;101146.53;5011996;28;65899;-31
2024/03/27 05:34:31;;;;;;;15.40;13.85;;;;;;;34.37;71.09;101143.78;5026011;28;69882;-32
2024/03/27 05:37:01;;;;;;;15.70;14.40;;;;;;;34.47;71.56;101144.03;5027498;28;66511;-32
2024/03/27 05:39:31;;;;;;;14.80;13.70;;;;;;;34.48;71.07;101143.78;5022188;28;71011;-31
2024/03/27 05:42:00;;;;;;;15.93;14.48;;;;;;;34.52;71.17;101130.53;5004900;28;65824;-31
2024/03/27 05:44:30;;;;;;;14.95;13.82;;;;;;;34.52;70.72;101119.63;5034982;28;70332;-31
2024/03/27 05:46:59;;;;;;;15.35;14.02;;;;;;;34.51;71.27;101112.50;5037214;28;65501;-31
2024/03/27 05:49:31;;;;;;;15.52;14.05;;;;;;;34.56;71.30;101120.00;5034663;28;70646;-31
2024/03/27 05:52:03;;;;;;;14.52;13.43;;;;;;;34.61;70.80;101114.66;5043141;28;66623;-31
2024/03/27 05:54:32;;;;;;;14.68;13.25;;;;;;;34.61;71.17;101099.16;5032299;28;69536;-31
2024/03/27 05:57:03;;;;;;;14.50;13.50;;;;;;;34.64;71.08;101100.56;5014919;28;66012;-31
2024/03/27 05:59:36;;;;;;;17.90;13.65;;;;;;;34.67;71.17;101090.00;5025923;28;70628;-30
2024/03/27 06:02:07;;;;;;;16.15;14.52;;;;;;;34.70;71.02;101089.53;5028484;28;66766;-32
2024/03/27 06:04:36;;;;;;;14.20;13.18;;;;;;;34.72;70.65;101086.56;5008058;28;70003;-31
2024/03/27 06:07:06;;;;;;;15.75;14.18;;;;;;;34.78;70.64;101079.31;5030452;28;65682;-31
2024/03/27 06:09:35;;;;;;;14.60;13.48;;;;;;;34.79;70.40;101070.06;5027944;28;70486;-31
2024/03/27 06:12:05;;;;;;;14.73;13.73;;;;;;;34.77;70.42;101050.41;5033769;28;66713;-31
2024/03/27 06:14:34;;;;;;;14.75;13.50;;;;;;;34.85;70.83;101059.03;5044470;28;69720;-31
2024/03/27 06:17:03;;;;;;;14.60;13.60;;;;;;;34.88;70.57;101057.69;5044450;28;66600;-31
2024/03/27 06:19:33;;;;;;;14.55;13.63;;;;;;;34.92;70.18;101053.44;5029028;28;69636;-32
2024/03/27 06:22:03;;;;;;;14.60;13.38;;;;;;;34.93;70.68;101039.53;5024810;28;66724;-34
2024/03/27 06:24:32;;;;;;;15.05;13.88;;;;;;;34.98;70.08;101036.09;5051309;28;69996;-34
2024/03/27 06:27:01;;;;;;;13.90;12.98;;;;;;;35.00;70.25;101033.94;5009841;28;67162;-31
2024/03/27 06:29:32;;;;;;;15.10;14.05;;;;;;;35.04;70.03;101018.75;5018979;28;70805;-33
2024/03/27 06:32:02;;;;;;;14.90;13.80;;;;;;;35.10;70.40;101014.25;4980169;28;65019;-31
2024/03/27 06:34:31;;;;;;;14.45;13.32;;;;;;;35.12;69.85;101018.38;5034444;28;69907;-32
2024/03/27 06:37:08;;;;;;;15.85;14.60;;;;;;;34.99;69.42;100977.75;5031067;28;66738;-33
2024/03/27 06:39:37;;;;;;;14.10;13.27;;;;;;;35.21;70.24;100993.44;5018568;28;70533;-32
2024/03/27 06:42:08;;;;;;;14.05;13.15;;;;;;;35.25;70.23;100986.44;5027122;28;66532;-31
2024/03/27 06:44:37;;;;;;;14.70;13.50;;;;;;;35.28;69.52;100981.28;5025296;28;70673;-32
2024/03/27 06:47:06;;;;;;;15.02;13.82;;;;;;;35.30;69.67;100972.84;5034555;28;66170;-31
2024/03/27 06:49:36;;;;;;;14.75;13.50;;;;;;;35.25;69.54;100953.69;5006494;28;70023;-31
2024/03/27 06:52:05;;;;;;;16.15;13.98;;;;;;;35.40;69.82;100964.00;5016162;28;66360;-32
2024/03/27 06:54:34;;;;;;;15.57;14.32;;;;;;;35.46;69.16;100957.56;5037958;28;70290;-31
2024/03/27 06:57:04;;;;;;;14.73;13.80;;;;;;;35.49;69.09;100966.06;5024975;28;66729;-31
2024/03/27 06:59:33;;;;;;;15.07;13.80;;;;;;;35.55;69.44;100964.22;5017449;28;69750;-31
2024/03/27 07:02:02;;;;;;;14.38;13.25;;;;;;;35.58;69.13;100961.88;5020805;28;66036;-31
2024/03/27 07:04:31;;;;;;;14.65;13.65;;;;;;;35.44;69.38;100922.34;5036618;28;69966;-33
2024/03/27 07:07:02;;;;;;;14.45;13.48;;;;;;;35.69;68.82;100959.28;5022398;28;66360;-31
2024/03/27 07:09:31;;;;;;;14.98;14.10;;;;;;;35.71;68.78;100946.22;5023098;28;70683;-33
2024/03/27 07:12:04;;;;;;;14.82;13.40;;;;;;;35.76;69.23;100943.56;5045150;28;43100;-31
2024/03/27 07:14:35;;;;;;;15.13;14.10;;;;;;;35.80;69.18;100934.63;5009124;28;71374;-32
2024/03/27 07:17:04;;;;;;;14.50;13.57;;;;;;;35.86;68.55;100934.66;5039966;28;65534;-33
2024/03/27 07:19:33;;;;;;;14.23;12.85;;;;;;;35.90;68.56;100933.91;5024472;28;69016;-32
2024/03/27 07:22:02;;;;;;;14.68;13.60;;;;;;;35.93;69.04;100927.13;5008032;28;67166;-33
2024/03/27 07:24:31;;;;;;;13.40;12.60;;;;;;;35.99;68.83;100926.09;5022518;28;70966;-31
2024/03/27 07:27:01;;;;;;;13.27;12.38;;;;;;;36.03;68.42;100914.44;5026480;28;66363;-31
2024/03/27 07:29:30;;;;;;;14.30;13.15;;;;;;;36.08;68.82;100919.16;5006621;28;70101;-31
2024/03/27 07:31:59;;;;;;;14.50;13.30;;;;;;;36.14;68.15;100914.59;5021407;28;66504;-34
2024/03/27 07:34:29;;;;;;;15.73;14.52;;;;;;;36.17;68.01;100914.06;5023641;28;69446;-31
2024/03/27 07:36:59;;;;;;;15.57;14.35;;;;;;;36.20;68.55;100905.38;5045303;28;66409;-34
2024/03/27 07:39:28;;;;;;;15.25;13.75;;;;;;;36.26;67.84;100904.31;5030586;28;69348;-32
2024/03/27 07:41:57;;;;;;;14.68;13.68;;;;;;;36.30;68.31;100905.44;5019124;28;66520;-32
2024/03/27 07:44:28;;;;;;;15.45;14.05;;;;;;;36.27;68.38;100895.03;5031780;28;68573;-32
2024/03/27 07:46:57;;;;;;;15.23;14.10;;;;;;;36.41;67.65;100901.78;5027849;28;65249;-33
2024/03/27 07:49:27;;;;;;;15.93;14.55;;;;;;;36.45;68.19;100908.34;5047742;28;70280;-31
2024/03/27 07:51:56;;;;;;;15.82;14.63;;;;;;;36.50;67.59;100904.00;5018493;28;66779;-32
2024/03/27 07:54:25;;;;;;;15.57;14.38;;;;;;;36.56;67.59;100901.13;5031454;28;70073;-33
2024/03/27 07:57:05;;;;;;;16.20;14.93;;;;;;;36.56;66.63;100905.75;5034610;28;66792;-32
2024/03/27 07:59:35;;;;;;;17.92;15.45;;;;;;;36.64;67.54;100900.66;5042183;28;70697;-32
2024/03/27 08:02:06;;;;;;;16.88;15.52;;;;;;;36.71;67.66;100900.41;5021519;28;66287;-32
2024/03/27 08:04:35;;;;;;;16.08;14.95;;;;;;;36.74;67.76;100899.91;5045225;28;70070;-32
2024/03/27 08:07:04;;;;;;;17.05;15.65;;;;;;;36.79;67.97;100891.75;5021096;28;65758;-32
2024/03/27 08:09:33;;;;;;;17.10;15.80;;;;;;;36.80;67.51;100887.91;5026082;28;69120;-34
2024/03/27 08:12:02;;;;;;;17.30;15.70;;;;;;;36.88;68.01;100890.16;5028757;28;65844;-31
2024/03/27 08:14:32;;;;;;;16.95;15.48;;;;;;;36.88;67.91;100881.16;5021070;28;70348;-33
2024/03/27 08:17:01;;;;;;;16.83;15.63;;;;;;;36.99;67.87;100884.78;5025709;28;65807;-36
2024/03/27 08:19:31;;;;;;;16.90;15.50;;;;;;;37.02;67.67;100867.88;5022210;28;70038;-34
2024/03/27 08:22:04;;;;;;;16.17;15.10;;;;;;;37.07;67.71;100876.13;5033686;28;65548;-35
2024/03/27 08:24:34;;;;;;;16.30;15.02;;;;;;;37.13;67.28;100880.53;5027906;28;70057;-33
2024/03/27 08:27:05;;;;;;;18.05;16.15;;;;;;;37.18;67.53;100877.84;4999749;28;65837;-32
2024/03/27 08:29:34;;;;;;;16.25;14.85;;;;;;;37.23;67.12;100886.09;5009632;28;68927;-31
2024/03/27 08:32:03;;;;;;;17.02;14.93;;;;;;;37.26;67.12;100888.28;5017802;28;66094;-36
2024/03/27 08:34:33;;;;;;;15.68;14.35;;;;;;;37.31;67.37;100884.78;5034922;28;69107;-34
2024/03/27 08:37:02;;;;;;;15.60;14.30;;;;;;;37.39;66.87;100888.91;5022118;28;65848;-32
2024/03/27 08:39:33;;;;;;;15.82;14.35;;;;;;;37.42;67.03;100889.22;5033177;28;70419;-32
2024/03/27 08:42:04;;;;;;;15.35;14.25;;;;;;;37.46;66.99;100884.84;5031933;28;66716;-33
2024/03/27 08:44:33;;;;;;;15.13;13.57;;;;;;;37.52;66.98;100872.84;5001726;28;69488;-32
2024/03/27 08:47:02;;;;;;;15.27;14.20;;;;;;;37.58;67.25;100876.44;5018777;28;66049;-31
2024/03/27 08:49:31;;;;;;;14.90;13.60;;;;;;;37.60;66.62;100879.75;5022527;28;69501;-33
2024/03/27 08:52:00;;;;;;;14.82;13.65;;;;;;;37.66;66.31;100884.16;5026134;28;66192;-33
2024/03/27 08:54:33;;;;;;;15.55;14.25;;;;;;;37.68;67.11;100876.50;5021986;28;69793;-32
2024/03/27 08:57:03;;;;;;;14.63;13.43;;;;;;;37.72;66.58;100872.16;4994277;28;66078;-34
2024/03/27 08:59:32;;;;;;;14.75;13.57;;;;;;;37.79;66.42;100880.09;5038190;28;70835;-32
2024/03/27 09:02:04;;;;;;;14.52;13.25;;;;;;;37.81;66.36;100880.66;5026087;28;66507;-32
2024/03/27 09:04:35;;;;;;;15.90;14.57;;;;;;;37.86;66.54;100875.19;5027922;28;70164;-32
2024/03/27 09:07:04;;;;;;;14.60;13.40;;;;;;;37.88;66.40;100881.22;5031904;28;65749;-36
2024/03/27 09:09:34;;;;;;;14.70;13.48;;;;;;;37.94;66.16;100885.63;5032809;28;69170;-32
2024/03/27 09:12:03;;;;;;;14.10;13.00;;;;;;;37.96;66.62;100875.25;5036152;28;66193;-33
2024/03/27 09:14:32;;;;;;;13.57;12.63;;;;;;;38.05;66.58;100885.69;5028450;28;70418;-35
2024/03/27 09:17:03;;;;;;;15.02;13.55;;;;;;;38.07;66.11;100886.25;5017822;28;66189;-31
2024/03/27 09:19:32;;;;;;;14.13;12.85;;;;;;;38.11;65.79;100885.41;5022488;28;70478;-34
2024/03/27 09:22:03;;;;;;;15.40;13.18;;;;;;;38.15;66.52;100885.72;5022896;28;66561;-32
2024/03/27 09:24:32;;;;;;;13.55;12.32;;;;;;;38.17;66.66;100876.16;5041318;28;70507;-32
2024/03/27 09:27:04;;;;;;;14.95;12.85;;;;;;;38.21;66.55;100879.97;5036790;28;65687;-37
2024/03/27 09:29:33;;;;;;;14.48;13.18;;;;;;;38.22;67.09;100887.09;5002792;28;70074;-33
2024/03/27 09:32:02;;;;;;;21.02;13.75;;;;;;;38.18;66.86;100885.19;5021309;28;66569;-32
2024/03/27 09:34:32;;;;;;;27.15;12.98;;;;;;;38.24;67.54;100889.56;5020454;28;69437;-31
2024/03/27 09:37:00;;;;;;;14.55;13.02;;;;;;;38.23;67.68;100885.19;5036633;28;66169;-31
2024/03/27 09:39:30;;;;;;;15.88;12.32;;;;;;;38.21;67.38;100890.94;5039857;28;69833;-31
2024/03/27 09:42:02;;;;;;;17.40;12.25;;;;;;;38.00;67.51;100862.69;5038999;28;65614;-33
2024/03/27 09:44:33;;;;;;;19.20;11.30;;;;;;;38.18;68.09;100894.22;5000964;28;69369;-32
2024/03/27 09:47:04;;;;;;;18.42;12.13;;;;;;;38.25;67.96;100895.88;5025715;28;66397;-33
2024/03/27 09:49:33;;;;;;;14.60;11.73;;;;;;;38.22;67.09;100892.56;5025115;28;70338;-32
2024/03/27 09:52:06;;;;;;;22.92;13.52;;;;;;;37.89;67.16;100865.59;5024758;28;66760;-32
2024/03/27 09:54:37;;;;;;;22.75;13.98;;;;;;;38.17;67.79;100895.31;5023994;28;69736;-31
2024/03/27 09:57:08;;;;;;;18.58;13.55;;;;;;;38.10;67.52;100892.00;5023389;28;66451;-32
2024/03/27 09:59:38;;;;;;;19.70;12.83;;;;;;;38.05;67.54;100896.63;5031822;28;69902;-32
2024/03/27 10:02:10;;;;;;;22.05;11.32;;;;;;;38.07;66.86;100900.75;5015288;28;66079;-31
2024/03/27 10:04:40;;;;;;;14.07;10.18;;;;;;;38.10;67.47;100889.25;5036007;28;69680;-32
2024/03/27 10:07:14;;;;;;;20.10;10.55;;;;;;;37.87;67.33;100862.34;5021063;28;66069;-33
2024/03/27 10:09:46;;;;;;;14.60;10.65;;;;;;;37.98;67.33;100891.44;5031955;28;69354;-33
2024/03/27 10:12:18;;;;;;;19.70;9.40;;;;;;;38.00;67.30;100900.19;5027304;28;65777;-33
2024/03/27 10:14:49;;;;;;;21.60;10.88;;;;;;;37.97;67.37;100897.97;5042861;28;70395;-31
2024/03/27 10:17:19;;;;;;;14.73;10.73;;;;;;;37.87;68.35;100889.72;5031241;28;65669;-32
2024/03/27 10:19:48;;;;;;;22.05;10.32;;;;;;;37.91;68.06;100897.09;5019096;28;70549;-33
2024/03/27 10:22:17;;;;;;;13.40;10.20;;;;;;;37.77;68.60;100902.25;5038141;28;66643;-32
2024/03/27 10:24:48;;;;;;;13.10;10.77;;;;;;;37.82;68.56;100903.38;5019991;28;69648;-32
2024/03/27 10:27:17;;;;;;;15.52;10.90;;;;;;;37.71;68.48;100905.25;5028097;28;65744;-31
2024/03/27 10:29:52;;;;;;;21.73;11.40;;;;;;;37.69;68.65;100910.97;5032313;28;70276;-32
2024/03/27 10:32:22;;;;;;;25.10;10.80;;;;;;;37.70;68.61;100912.66;5035984;28;66494;-31
2024/03/27 10:34:52;;;;;;;18.60;11.63;;;;;;;37.60;68.61;100907.13;5013059;28;69700;-32
2024/03/27 10:37:22;;;;;;;24.52;11.48;;;;;;;37.54;69.03;100913.66;5023417;28;66704;-31
2024/03/27 10:39:52;;;;;;;16.52;11.82;;;;;;;37.48;68.51;100921.00;5040034;28;69372;-32
2024/03/27 10:42:27;;;;;;;27.38;12.52;;;;;;;37.40;68.97;100912.44;5024546;28;65717;-32
2024/03/27 10:45:00;;;;;;;18.67;11.93;;;;;;;37.23;68.88;100921.66;5026498;28;70041;-31
2024/03/27 10:47:34;;;;;;;24.95;12.27;;;;;;;37.24;68.97;100911.53;5031231;28;65641;-31
2024/03/27 10:50:07;;;;;;;21.70;11.35;;;;;;;37.22;69.83;100927.38;4996402;28;69192;-34
2024/03/27 10:52:41;;;;;;;23.77;11.68;;;;;;;37.16;69.95;100933.88;5027923;28;66371;-31
2024/03/27 10:55:11;;;;;;;29.77;10.77;;;;;;;37.15;69.68;100937.72;5007506;28;70047;-31
2024/03/27 10:57:40;;;;;;;21.58;11.40;;;;;;;37.10;69.81;100935.75;5022030;28;66287;-31
2024/03/27 11:00:12;;;;;;;25.65;12.65;;;;;;;36.98;70.43;100927.72;5037764;28;70401;-31
2024/03/27 11:02:54;;;;;;;24.45;11.52;;;;;;;36.87;71.03;100931.44;5025689;28;65995;-31
2024/03/27 11:05:27;;;;;;;19.40;11.23;;;;;;;36.96;70.82;100945.47;5017890;28;70055;-34
2024/03/27 11:08:00;;;;;;;16.38;11.10;;;;;;;36.82;70.57;100954.09;5021103;28;66019;-31
2024/03/27 11:10:30;;;;;;;27.52;11.75;;;;;;;36.72;70.23;100950.44;5039642;28;69949;-31
2024/03/27 11:13:00;;;;;;;23.95;11.93;;;;;;;36.62;71.46;100957.47;5028349;28;65296;-32
2024/03/27 11:15:31;;;;;;;26.02;11.13;;;;;;;36.74;71.19;100962.75;5047888;28;69054;-33
2024/03/27 11:18:02;;;;;;;23.40;11.05;;;;;;;36.65;71.53;100972.53;5017094;28;65981;-32
2024/03/27 11:20:33;;;;;;;18.07;10.27;;;;;;;36.61;71.23;100976.84;5037967;28;70082;-32
2024/03/27 11:23:04;;;;;;;;;;;;;;;36.39;73.21;100985.88;5037758;28;65441;-30